createdAt,value
2018-01-12T00:01:15.313Z,3.32
2018-01-12T00:03:42.981Z,3.20
2018-01-12T00:06:10.744Z,3.22
2018-01-12T00:08:38.394Z,3.26
2018-01-12T00:11:06.036Z,3.25
2018-01-12T00:13:33.661Z,3.34
2018-01-12T00:16:01.324Z,3.36
2018-01-12T00:18:29.134Z,3.24
2018-01-12T00:20:57.010Z,3.19
2018-01-12T00:23:24.619Z,3.16
2018-01-12T00:25:52.264Z,3.08
2018-01-12T00:28:20.128Z,3.09
2018-01-12T00:30:47.788Z,3.16
2018-01-12T00:33:15.653Z,3.16
2018-01-12T00:35:43.304Z,3.19
2018-01-12T00:38:10.940Z,3.19
2018-01-12T00:40:38.630Z,3.31
2018-01-12T00:43:06.380Z,3.52
2018-01-12T00:45:34.021Z,3.30
2018-01-12T00:48:01.644Z,3.38
2018-01-12T00:50:29.279Z,3.28
2018-01-12T00:52:56.916Z,3.26
2018-01-12T00:55:24.568Z,3.11
2018-01-12T00:57:52.249Z,3.07
2018-01-12T01:00:19.990Z,3.17
2018-01-12T01:02:48.820Z,3.25
2018-01-12T01:05:16.484Z,3.21
2018-01-12T01:07:44.130Z,3.18
2018-01-12T01:10:12.043Z,3.14
2018-01-12T01:12:39.684Z,3.32
2018-01-12T01:15:07.423Z,3.17
2018-01-12T01:17:35.275Z,3.08
2018-01-12T01:20:02.904Z,3.06
2018-01-12T01:22:30.619Z,3.09
2018-01-12T01:24:58.236Z,3.08
2018-01-12T01:27:25.981Z,3.13
2018-01-12T01:29:53.633Z,3.17
2018-01-12T01:32:21.301Z,3.26
2018-01-12T01:34:48.948Z,3.27
2018-01-12T01:37:16.596Z,3.42
2018-01-12T01:39:44.235Z,3.46
2018-01-12T01:42:11.859Z,3.40
2018-01-12T01:44:39.548Z,3.53
2018-01-12T01:47:07.168Z,3.33
2018-01-12T01:49:34.843Z,3.16
2018-01-12T01:52:02.585Z,3.04
2018-01-12T01:54:30.225Z,3.01
2018-01-12T01:56:57.889Z,3.03
2018-01-12T01:59:25.540Z,3.11
2018-01-12T02:01:53.244Z,3.23
2018-01-12T02:04:20.876Z,3.17
2018-01-12T02:06:48.635Z,3.11
2018-01-12T02:09:16.258Z,3.06
2018-01-12T02:11:43.905Z,3.14
2018-01-12T02:14:11.541Z,3.10
2018-01-12T02:16:39.180Z,3.02
2018-01-12T02:19:06.938Z,3.06
2018-01-12T02:21:34.606Z,3.26
2018-01-12T02:24:02.239Z,3.25
2018-01-12T02:26:30.020Z,3.28
2018-01-12T02:28:57.722Z,3.41
2018-01-12T02:31:25.942Z,3.29
2018-01-12T02:33:53.746Z,3.15
2018-01-12T02:36:21.401Z,3.07
2018-01-12T02:38:49.244Z,3.09
2018-01-12T02:41:16.884Z,3.05
2018-01-12T02:43:44.835Z,3.09
2018-01-12T02:46:12.456Z,3.09
2018-01-12T02:48:40.124Z,3.18
2018-01-12T02:51:07.785Z,3.05
2018-01-12T02:53:35.510Z,3.01
2018-01-12T02:56:03.195Z,2.97
2018-01-12T02:58:31.011Z,3.04
2018-01-12T03:00:58.724Z,3.17
2018-01-12T03:03:26.496Z,3.27
2018-01-12T03:05:54.291Z,3.26
2018-01-12T03:08:22.019Z,3.27
2018-01-12T03:10:49.683Z,3.17
2018-01-12T03:13:17.338Z,3.31
2018-01-12T03:15:45.564Z,3.23
2018-01-12T03:18:13.315Z,3.13
2018-01-12T03:20:40.938Z,3.11
2018-01-12T03:23:08.554Z,3.10
2018-01-12T03:25:36.189Z,3.18
2018-01-12T03:28:03.820Z,3.30
2018-01-12T03:30:31.651Z,3.33
2018-01-12T03:32:59.294Z,3.42
2018-01-12T03:35:26.985Z,3.50
2018-01-12T03:37:54.697Z,3.36
2018-01-12T03:40:22.354Z,3.28
2018-01-12T03:42:49.995Z,3.31
2018-01-12T03:45:17.620Z,3.60
2018-01-12T03:47:45.328Z,3.33
2018-01-12T03:50:13.005Z,3.31
2018-01-12T03:52:40.715Z,3.40
2018-01-12T03:55:08.345Z,3.32
2018-01-12T03:57:35.996Z,3.38
2018-01-12T04:00:03.779Z,3.43
2018-01-12T04:02:31.566Z,3.48
2018-01-12T04:04:59.310Z,3.51
2018-01-12T04:07:26.956Z,3.52
2018-01-12T04:09:54.790Z,3.45
2018-01-12T04:12:22.426Z,3.51
2018-01-12T04:14:50.076Z,3.53
2018-01-12T04:17:17.738Z,3.50
2018-01-12T04:19:45.435Z,3.43
2018-01-12T04:22:13.123Z,3.40
2018-01-12T04:24:40.816Z,3.32
2018-01-12T04:27:08.511Z,3.33
2018-01-12T04:29:36.155Z,3.39
2018-01-12T04:32:03.841Z,3.34
2018-01-12T04:34:31.521Z,3.21
2018-01-12T04:36:59.186Z,3.20
2018-01-12T04:39:26.955Z,3.31
2018-01-12T04:41:54.809Z,3.27
2018-01-12T04:44:22.628Z,3.27
2018-01-12T04:46:50.235Z,3.25
2018-01-12T04:49:18.056Z,3.29
2018-01-12T04:51:45.801Z,3.23
2018-01-12T04:54:13.507Z,3.24
2018-01-12T04:56:41.168Z,3.15
2018-01-12T04:59:08.869Z,3.19
2018-01-12T05:01:36.500Z,3.15
2018-01-12T05:04:04.171Z,3.23
2018-01-12T05:06:31.833Z,3.27
2018-01-12T05:08:59.476Z,3.20
2018-01-12T05:11:27.124Z,3.14
2018-01-12T05:13:54.776Z,3.10
2018-01-12T05:16:22.482Z,3.04
2018-01-12T05:18:50.131Z,3.08
2018-01-12T05:21:17.910Z,3.03
2018-01-12T05:23:45.669Z,2.99
2018-01-12T05:26:13.441Z,3.22
2018-01-12T05:28:41.236Z,3.00
2018-01-12T05:31:08.954Z,3.01
2018-01-12T05:33:36.647Z,2.89
2018-01-12T05:36:04.317Z,2.91
2018-01-12T05:38:31.960Z,2.94
2018-01-12T05:40:59.644Z,2.90
2018-01-12T05:43:27.352Z,3.01
2018-01-12T05:45:55.114Z,2.99
2018-01-12T05:48:22.752Z,2.94
2018-01-12T05:50:50.431Z,3.03
2018-01-12T05:53:18.214Z,2.93
2018-01-12T05:55:45.862Z,2.91
2018-01-12T05:58:13.516Z,3.07
2018-01-12T06:00:41.135Z,3.10
2018-01-12T06:03:20.680Z,3.14
2018-01-12T06:06:00.436Z,3.09
2018-01-12T06:08:28.084Z,3.13
2018-01-12T06:10:55.796Z,3.04
2018-01-12T06:13:23.457Z,3.27
2018-01-12T06:15:51.280Z,3.02
2018-01-12T06:18:19.202Z,2.89
2018-01-12T06:20:46.890Z,2.91
2018-01-12T06:23:14.557Z,2.91
2018-01-12T06:25:42.219Z,2.98
2018-01-12T06:28:09.915Z,3.04
2018-01-12T06:30:37.574Z,3.28
2018-01-12T06:33:05.297Z,3.09
2018-01-12T06:35:33.135Z,3.26
2018-01-12T06:38:01.400Z,3.13
2018-01-12T06:40:29.057Z,3.26
2018-01-12T06:42:56.715Z,3.29
2018-01-12T06:45:24.557Z,3.16
2018-01-12T06:47:52.224Z,3.05
2018-01-12T06:50:19.895Z,2.93
2018-01-12T06:52:51.125Z,2.96
2018-01-12T06:55:18.751Z,3.04
2018-01-12T06:57:46.380Z,2.95
2018-01-12T07:00:14.168Z,2.94
2018-01-12T07:02:42.187Z,2.93
2018-01-12T07:05:09.946Z,2.93
2018-01-12T07:07:37.661Z,2.87
2018-01-12T07:10:05.421Z,2.89
2018-01-12T07:12:33.136Z,2.86
2018-01-12T07:15:00.771Z,2.83
2018-01-12T07:17:29.056Z,2.95
2018-01-12T07:19:56.844Z,2.88
2018-01-12T07:22:26.336Z,2.87
2018-01-12T07:24:54.315Z,2.87
2018-01-12T07:27:21.999Z,3.00
2018-01-12T07:29:49.737Z,3.21
2018-01-12T07:32:17.436Z,3.04
2018-01-12T07:34:45.115Z,3.00
2018-01-12T07:37:12.756Z,2.91
2018-01-12T07:39:40.470Z,2.99
2018-01-12T07:42:08.145Z,3.14
2018-01-12T07:44:35.790Z,2.97
2018-01-12T07:47:03.561Z,2.95
2018-01-12T07:49:31.304Z,2.99
2018-01-12T07:51:58.936Z,3.06
2018-01-12T07:54:26.701Z,3.25
2018-01-12T07:56:54.420Z,3.26
2018-01-12T07:59:22.180Z,3.17
2018-01-12T08:01:55.489Z,3.36
2018-01-12T08:04:23.146Z,3.31
2018-01-12T08:06:50.849Z,3.27
2018-01-12T08:09:18.500Z,3.25
2018-01-12T08:11:46.219Z,3.43
2018-01-12T08:14:13.894Z,3.47
2018-01-12T08:16:41.554Z,3.22
2018-01-12T08:19:09.185Z,3.13
2018-01-12T08:21:36.834Z,3.07
2018-01-12T08:24:04.604Z,3.11
2018-01-12T08:26:32.255Z,3.27
2018-01-12T08:28:59.979Z,3.29
2018-01-12T08:31:27.841Z,3.25
2018-01-12T08:33:55.735Z,3.26
2018-01-12T08:36:23.374Z,3.45
2018-01-12T08:38:51.011Z,3.39
2018-01-12T08:41:18.654Z,3.51
2018-01-12T08:43:46.364Z,3.62
2018-01-12T08:46:14.226Z,3.36
2018-01-12T08:48:41.895Z,3.47
2018-01-12T08:51:09.581Z,3.39
2018-01-12T08:53:37.257Z,3.44
2018-01-12T08:56:04.911Z,3.23
2018-01-12T08:58:32.537Z,3.39
2018-01-12T09:01:00.196Z,3.57
2018-01-12T09:03:27.820Z,3.97
2018-01-12T09:05:55.678Z,3.68
2018-01-12T09:08:23.395Z,3.59
2018-01-12T09:10:51.095Z,3.70
2018-01-12T09:13:29.522Z,3.81
2018-01-12T09:16:04.260Z,3.80
2018-01-12T09:18:31.905Z,3.93
2018-01-12T09:20:59.520Z,3.82
2018-01-12T09:23:33.164Z,3.78
2018-01-12T09:26:00.833Z,3.49
2018-01-12T09:28:28.599Z,3.43
2018-01-12T09:30:56.256Z,3.43
2018-01-12T09:33:23.874Z,3.43
2018-01-12T09:35:51.511Z,3.57
2018-01-12T09:38:22.058Z,3.78
2018-01-12T09:40:49.755Z,3.77
2018-01-12T09:43:17.412Z,3.60
2018-01-12T09:45:45.800Z,3.56
2018-01-12T09:48:21.380Z,3.60
2018-01-12T09:50:49.009Z,3.85
2018-01-12T09:53:16.646Z,3.64
2018-01-12T09:55:44.884Z,3.64
2018-01-12T09:58:12.525Z,3.74
2018-01-12T10:00:42.892Z,4.19
2018-01-12T10:03:10.549Z,3.99
2018-01-12T10:05:38.259Z,3.86
2018-01-12T10:08:05.911Z,3.74
2018-01-12T10:10:33.552Z,3.97
2018-01-12T10:13:01.176Z,3.83
2018-01-12T10:15:28.950Z,3.70
2018-01-12T10:17:56.819Z,3.78
2018-01-12T10:20:39.303Z,3.73
2018-01-12T10:23:06.935Z,3.88
2018-01-12T10:25:34.570Z,4.05
2018-01-12T10:28:02.180Z,4.09
2018-01-12T10:33:58.942Z,3.93
2018-01-12T10:36:36.586Z,4.10
2018-01-12T10:39:04.477Z,4.48
2018-01-12T10:41:43.882Z,4.13
2018-01-12T10:44:11.547Z,4.19
2018-01-12T10:46:57.873Z,4.37
2018-01-12T10:49:27.692Z,4.45
2018-01-12T10:52:09.554Z,4.28
2018-01-12T10:54:37.171Z,4.28
2018-01-12T10:57:04.796Z,4.34
2018-01-12T10:59:32.466Z,4.13
2018-01-12T11:02:00.166Z,4.28
2018-01-12T11:04:27.801Z,4.56
2018-01-12T11:06:55.530Z,4.50
2018-01-12T11:09:23.196Z,4.54
2018-01-12T11:11:50.844Z,4.64
2018-01-12T11:14:18.481Z,4.74
2018-01-12T11:16:46.106Z,4.84
2018-01-12T11:19:13.765Z,4.85
2018-01-12T11:21:41.400Z,4.98
2018-01-12T11:24:09.038Z,4.96
2018-01-12T11:26:36.805Z,5.04
2018-01-12T11:29:04.525Z,5.15
2018-01-12T11:31:32.161Z,4.87
2018-01-12T11:33:59.771Z,4.74
2018-01-12T11:36:27.407Z,4.80
2018-01-12T11:38:55.043Z,4.65
2018-01-12T11:41:22.747Z,4.52
2018-01-12T11:43:50.547Z,4.60
2018-01-12T11:46:18.365Z,4.55
2018-01-12T11:48:46.012Z,4.46
2018-01-12T11:51:13.631Z,4.69
2018-01-12T11:53:41.334Z,4.89
2018-01-12T11:56:09.006Z,4.80
2018-01-12T11:58:36.709Z,4.74
2018-01-12T12:01:04.482Z,4.28
2018-01-12T12:03:32.104Z,4.36
2018-01-12T12:05:59.740Z,4.48
2018-01-12T12:08:27.532Z,4.38
2018-01-12T12:10:55.336Z,4.52
2018-01-12T12:13:22.940Z,4.41
2018-01-12T12:15:50.577Z,4.40
2018-01-12T12:18:18.226Z,4.41
2018-01-12T12:20:45.830Z,4.21
2018-01-12T12:23:13.586Z,4.22
2018-01-12T12:25:41.220Z,4.43
2018-01-12T12:28:08.871Z,4.31
2018-01-12T12:30:36.653Z,4.43
2018-01-12T12:33:04.286Z,4.44
2018-01-12T12:35:31.950Z,4.45
2018-01-12T12:37:59.677Z,4.46
2018-01-12T12:40:27.425Z,4.78
2018-01-12T12:42:55.060Z,4.86
2018-01-12T12:45:22.710Z,4.68
2018-01-12T12:47:50.352Z,4.63
2018-01-12T12:50:17.955Z,4.91
2018-01-12T12:52:45.602Z,4.84
2018-01-12T12:55:13.297Z,4.90
2018-01-12T12:57:40.928Z,5.01
2018-01-12T13:00:08.754Z,5.22
2018-01-12T13:02:36.416Z,5.27
2018-01-12T13:05:04.194Z,5.18
2018-01-12T13:07:31.977Z,5.63
2018-01-12T13:09:59.727Z,5.51
2018-01-12T13:12:27.388Z,5.52
2018-01-12T13:14:55.026Z,5.24
2018-01-12T13:17:22.666Z,5.09
2018-01-12T13:19:50.302Z,4.97
2018-01-12T13:22:18.015Z,4.81
2018-01-12T13:24:45.661Z,4.73
2018-01-12T13:27:13.306Z,4.73
2018-01-12T13:29:41.137Z,5.04
2018-01-12T13:32:08.830Z,5.22
2018-01-12T13:34:36.483Z,5.20
2018-01-12T13:37:04.117Z,4.91
2018-01-12T13:39:31.737Z,4.88
2018-01-12T13:41:59.479Z,4.90
2018-01-12T13:44:27.102Z,5.03
2018-01-12T13:46:54.886Z,4.98
2018-01-12T13:49:22.607Z,5.17
2018-01-12T13:51:50.386Z,5.38
2018-01-12T13:54:18.091Z,5.64
2018-01-12T13:56:45.852Z,5.69
2018-01-12T13:59:13.522Z,5.60
2018-01-12T14:01:41.212Z,5.49
2018-01-12T14:04:08.892Z,5.64
2018-01-12T14:06:36.652Z,5.70
2018-01-12T14:09:04.261Z,5.33
2018-01-12T14:11:31.930Z,5.22
2018-01-12T14:13:59.636Z,5.07
2018-01-12T14:16:27.312Z,4.96
2018-01-12T14:18:55.092Z,5.13
2018-01-12T14:21:22.736Z,5.02
2018-01-12T14:23:50.367Z,5.17
2018-01-12T14:26:17.973Z,5.12
2018-01-12T14:28:45.621Z,5.04
2018-01-12T14:31:13.426Z,5.25
2018-01-12T14:33:41.191Z,5.07
2018-01-12T14:36:08.815Z,5.03
2018-01-12T14:38:36.777Z,5.00
2018-01-12T14:41:04.456Z,4.68
2018-01-12T14:43:32.092Z,4.82
2018-01-12T14:45:59.883Z,5.07
2018-01-12T14:48:27.512Z,5.08
2018-01-12T14:50:55.171Z,4.84
2018-01-12T14:53:22.902Z,4.72
2018-01-12T14:55:50.569Z,4.75
2018-01-12T14:58:18.205Z,4.81
2018-01-12T15:00:45.979Z,4.75
2018-01-12T15:03:13.597Z,4.76
2018-01-12T15:05:41.251Z,4.86
2018-01-12T15:08:08.988Z,4.76
2018-01-12T15:10:36.789Z,4.70
2018-01-12T15:13:04.506Z,4.71
2018-01-12T15:15:32.177Z,4.66
2018-01-12T15:17:59.870Z,4.76
2018-01-12T15:20:27.492Z,4.70
2018-01-12T15:22:55.171Z,4.65
2018-01-12T15:25:22.927Z,4.60
2018-01-12T15:27:50.547Z,4.71
2018-01-12T15:30:18.172Z,4.62
2018-01-12T15:32:46.113Z,4.64
2018-01-12T15:35:13.740Z,4.56
2018-01-12T15:37:41.357Z,4.50
2018-01-12T15:40:09.287Z,4.58
2018-01-12T15:42:36.970Z,4.50
2018-01-12T15:45:04.603Z,4.44
2018-01-12T15:47:32.488Z,4.43
2018-01-12T15:50:00.296Z,4.48
2018-01-12T15:52:27.976Z,4.45
2018-01-12T15:54:56.182Z,4.53
2018-01-12T15:57:24.047Z,4.57
2018-01-12T15:59:52.137Z,4.38
2018-01-12T16:02:20.156Z,4.31
2018-01-12T16:04:48.052Z,4.30
2018-01-12T16:07:15.838Z,4.37
2018-01-12T16:09:43.922Z,4.40
2018-01-12T16:12:11.837Z,4.18
2018-01-12T16:14:39.637Z,4.26
2018-01-12T16:17:07.431Z,4.11
2018-01-12T16:19:35.237Z,4.31
2018-01-12T16:22:03.251Z,4.07
2018-01-12T16:24:31.033Z,4.07
2018-01-12T16:26:58.816Z,4.08
2018-01-12T16:29:26.462Z,4.07
2018-01-12T16:31:54.147Z,4.12
2018-01-12T16:34:21.973Z,4.30
2018-01-12T16:36:49.711Z,4.29
2018-01-12T16:39:17.563Z,4.17
2018-01-12T16:41:45.211Z,4.07
2018-01-12T16:44:13.058Z,4.03
2018-01-12T16:46:41.193Z,3.98
2018-01-12T16:49:08.940Z,4.09
2018-01-12T16:51:36.681Z,4.05
2018-01-12T16:54:04.481Z,4.01
2018-01-12T16:56:32.127Z,4.01
2018-01-12T16:58:59.907Z,4.09
2018-01-12T17:01:27.659Z,4.06
2018-01-12T17:03:55.331Z,4.07
2018-01-12T17:06:22.987Z,4.07
2018-01-12T17:08:50.746Z,4.12
2018-01-12T17:11:18.417Z,4.03
2018-01-12T17:13:46.042Z,4.01
2018-01-12T17:16:14.084Z,4.07
2018-01-12T17:18:41.745Z,4.01
2018-01-12T17:21:09.552Z,4.03
2018-01-12T17:23:37.188Z,4.03
2018-01-12T17:26:04.903Z,4.01
2018-01-12T17:28:32.574Z,4.07
2018-01-12T17:31:00.208Z,3.97
2018-01-12T17:33:27.878Z,3.94
2018-01-12T17:35:55.646Z,4.05
2018-01-12T17:38:23.558Z,3.95
2018-01-12T17:40:51.271Z,3.94
2018-01-12T17:43:18.929Z,3.89
2018-01-12T17:45:46.711Z,3.91
2018-01-12T17:48:14.379Z,3.89
2018-01-12T17:50:42.045Z,3.87
2018-01-12T17:53:09.687Z,3.92
2018-01-12T17:55:37.336Z,3.90
2018-01-12T17:58:05.107Z,3.90
2018-01-12T18:00:32.839Z,3.88
2018-01-12T18:03:00.580Z,4.07
2018-01-12T18:05:28.322Z,4.05
2018-01-12T18:07:55.982Z,3.96
2018-01-12T18:10:23.668Z,3.89
2018-01-12T18:12:51.293Z,3.84
2018-01-12T18:15:18.938Z,3.81
2018-01-12T18:17:46.605Z,3.87
2018-01-12T18:20:14.293Z,3.88
2018-01-12T18:22:41.977Z,3.87
2018-01-12T18:25:09.638Z,3.78
2018-01-12T18:27:37.493Z,3.71
2018-01-12T18:30:05.148Z,3.60
2018-01-12T18:32:32.941Z,3.64
2018-01-12T18:35:00.630Z,3.71
2018-01-12T18:37:28.298Z,3.69
2018-01-12T18:39:56.005Z,3.67
2018-01-12T18:42:23.732Z,3.66
2018-01-12T18:44:51.378Z,3.68
2018-01-12T18:47:19.062Z,3.53
2018-01-12T18:49:46.738Z,3.46
2018-01-12T18:52:14.392Z,3.61
2018-01-12T18:54:42.038Z,3.58
2018-01-12T18:57:09.712Z,3.58
2018-01-12T18:59:37.448Z,3.63
2018-01-12T19:02:05.128Z,3.62
2018-01-12T19:04:32.827Z,3.58
2018-01-12T19:07:00.758Z,3.65
2018-01-12T19:09:28.533Z,3.74
2018-01-12T19:11:56.158Z,3.57
2018-01-12T19:14:23.948Z,3.51
2018-01-12T19:16:51.569Z,3.45
2018-01-12T19:19:19.228Z,3.47
2018-01-12T19:21:46.932Z,3.43
2018-01-12T19:24:14.543Z,3.41
2018-01-12T19:26:42.163Z,3.38
2018-01-12T19:29:09.953Z,3.38
2018-01-12T19:31:37.648Z,3.34
2018-01-12T19:34:05.292Z,3.37
2018-01-12T19:36:33.021Z,3.48
2018-01-12T19:39:00.723Z,3.59
2018-01-12T19:41:28.463Z,3.61
2018-01-12T19:43:56.123Z,3.63
2018-01-12T19:46:23.883Z,3.65
2018-01-12T19:48:51.687Z,3.65
2018-01-12T19:51:19.643Z,3.64
2018-01-12T19:53:47.292Z,3.67
2018-01-12T19:56:15.060Z,3.66
2018-01-12T19:58:42.822Z,3.66
2018-01-12T20:01:10.556Z,3.51
2018-01-12T20:03:38.218Z,3.53
2018-01-12T20:06:05.989Z,3.72
2018-01-12T20:08:33.623Z,3.73
2018-01-12T20:11:01.243Z,3.70
2018-01-12T20:13:29.002Z,3.62
2018-01-12T20:15:56.876Z,3.58
2018-01-12T20:18:24.541Z,3.67
2018-01-12T20:20:52.302Z,3.64
2018-01-12T20:23:19.965Z,3.60
2018-01-12T20:25:47.636Z,3.50
2018-01-12T20:28:15.271Z,3.56
2018-01-12T20:30:43.011Z,3.79
2018-01-12T20:33:10.793Z,3.97
2018-01-12T20:35:38.432Z,3.83
2018-01-12T20:38:06.073Z,3.70
2018-01-12T20:40:33.728Z,3.63
2018-01-12T20:43:01.406Z,3.79
2018-01-12T20:45:29.052Z,3.75
2018-01-12T20:47:56.743Z,3.72
2018-01-12T20:50:24.421Z,3.64
2018-01-12T20:52:52.138Z,3.79
2018-01-12T20:55:19.779Z,3.55
2018-01-12T20:57:47.419Z,3.54
2018-01-12T21:00:15.048Z,3.66
2018-01-12T21:02:42.703Z,3.70
2018-01-12T21:05:10.422Z,3.62
2018-01-12T21:07:38.181Z,3.66
2018-01-12T21:10:05.916Z,3.61
2018-01-12T21:12:33.696Z,3.68
2018-01-12T21:15:01.364Z,3.66
2018-01-12T21:17:29.168Z,3.73
2018-01-12T21:19:56.792Z,3.61
2018-01-12T21:22:24.556Z,3.62
2018-01-12T21:24:52.213Z,3.60
2018-01-12T21:27:19.846Z,3.60
2018-01-12T21:29:47.501Z,3.61
2018-01-12T21:32:15.143Z,3.77
2018-01-12T21:34:42.810Z,3.71
2018-01-12T21:37:10.455Z,3.71
2018-01-12T21:39:38.101Z,3.64
2018-01-12T21:42:05.769Z,3.59
2018-01-12T21:44:33.436Z,3.57
2018-01-12T21:47:01.069Z,3.66
2018-01-12T21:49:28.702Z,3.62
2018-01-12T21:51:56.338Z,3.71
2018-01-12T21:54:24.008Z,3.67
2018-01-12T21:56:51.772Z,3.58
2018-01-12T21:59:19.538Z,3.60
2018-01-12T22:01:47.204Z,3.70
2018-01-12T22:04:14.846Z,3.66
2018-01-12T22:06:42.468Z,3.72
2018-01-12T22:09:10.094Z,3.61
2018-01-12T22:11:37.847Z,3.67
2018-01-12T22:14:05.537Z,3.69
2018-01-12T22:16:33.271Z,3.58
2018-01-12T22:19:01.028Z,3.56
2018-01-12T22:21:28.709Z,3.51
2018-01-12T22:23:56.409Z,3.71
2018-01-12T22:26:24.342Z,3.64
2018-01-12T22:28:51.994Z,3.67
2018-01-12T22:31:19.660Z,3.68
2018-01-12T22:33:47.284Z,3.69
2018-01-12T22:36:14.905Z,3.69
2018-01-12T22:38:42.607Z,3.71
2018-01-12T22:41:10.462Z,3.75
2018-01-12T22:43:38.087Z,3.91
2018-01-12T22:46:05.833Z,3.73
2018-01-12T22:48:33.596Z,3.62
2018-01-12T22:51:01.378Z,3.62
2018-01-12T22:53:29.150Z,3.57
2018-01-12T22:55:56.805Z,3.58
2018-01-12T22:58:24.442Z,3.66
2018-01-12T23:00:52.244Z,3.65
2018-01-12T23:03:19.977Z,3.56
2018-01-12T23:05:47.775Z,3.48
2018-01-12T23:08:15.407Z,3.46
2018-01-12T23:10:43.036Z,3.53
2018-01-12T23:13:10.669Z,3.62
2018-01-12T23:15:38.299Z,3.56
2018-01-12T23:18:06.058Z,3.56
2018-01-12T23:20:33.689Z,3.55
2018-01-12T23:23:01.337Z,3.59
2018-01-12T23:25:28.974Z,3.69
2018-01-12T23:27:56.832Z,3.62
2018-01-12T23:30:24.449Z,3.70
2018-01-12T23:32:52.069Z,3.68
2018-01-12T23:35:19.693Z,3.59
2018-01-12T23:37:47.340Z,3.67
2018-01-12T23:40:15.008Z,3.67
2018-01-12T23:42:42.694Z,3.67
2018-01-12T23:45:10.367Z,3.59
2018-01-12T23:47:37.983Z,3.63
2018-01-12T23:50:05.609Z,3.52
2018-01-12T23:52:33.252Z,3.51
2018-01-12T23:55:00.868Z,3.53
2018-01-12T23:57:28.497Z,3.51
2018-01-12T23:59:56.133Z,3.57
